AirNav   Pilot Hours Calculator
 
 889 users online  

FL44 Smokey's Heliport
Daytona Beach, Florida, USA

GOING TO DAYTONA BEACH?


FAA INFORMATION EFFECTIVE 30 JANUARY 2020

Location

FAA Identifier: FL44
Lat/Long: 29-13-50.9310N 081-01-41.1980W
29-13.848850N 081-01.686633W
29.2308142,-81.0281106
(estimated)
Elevation: 10 ft. / 3 m (estimated)
Variation: 03W (1985)
Time zone: UTC -5 (UTC -4 during Daylight Saving Time)
Zip code: 32117

Heliport Operations

Heliport use: Private use. Permission required prior to landing
Activation date: 12/1976
Control tower: no
ARTCC: JACKSONVILLE CENTER
FSS: SAINT PETERSBURG FLIGHT SERVICE STATION
Attendance: MON-FRI 0800-1700
Wind indicator: yes
Segmented circle: no

Heliport Communications

WX ASOS at DAB (3 nm SW): PHONE 386-253-7469
WX AWOS-3 at OMN (6 nm NW): 118.475 (386-615-7084)
WX AWOS-3 at EVB (11 nm S): 124.625 (386-409-4705)
WX AWOS-3 at DED (17 nm SW): 119.575 (386-740-5811)
WX AWOS-3 at FIN (17 nm NW): 128.325 (386-437-7334)

Nearby radio navigation aids

VOR radial/distance  VOR name  Freq  Var
OMNr134/6.2ORMOND BEACH VORTAC112.6000E

Heliport Services

Runway Information

Helipad H1

Dimensions: 250 x 135 ft. / 76 x 41 m
Surface: turf
Latitude: 29-13.848850N
Longitude: 081-01.686633W
Elevation: 10.0 ft.
Traffic pattern: leftleft
Markings: none, in fair condition

Heliport Ownership and Management from official FAA records

Ownership: Privately-owned
Owner: HENRY (SMOKEY) YUNICK
957 N BEACH ST
DAYTONA BEACH, FL 32017
Phone 904-254-0838
Manager: SMOKEY YUNICK
957 N BEACH ST
DAYTONA BEACH, FL 32017
Phone 904-254-0838

Additional Remarks

FOR CD CTC DAYTONA APCH AT 386-226-3939.

Instrument Procedures

There are no published instrument procedures at FL44.

Some nearby airports with instrument procedures:

KDAB - Daytona Beach International Airport (3 nm SW)
KOMN - Ormond Beach Municipal Airport (6 nm NW)
KEVB - New Smyrna Beach Municipal Airport (11 nm S)
X50 - Massey Ranch Airpark (16 nm S)
KDED - DeLand Municipal Airport-Sidney H Taylor Field (17 nm SW)
KFIN - Flagler Executive Airport (17 nm NW)
 
Loc | Ops | Rwys | IFR | FBO | Links
Com | Nav | Svcs | Stats | Notes
Area around FL44 (Smokey's Heliport)
 
Road maps at: MapQuest Bing Google
 
Aerial photo
No photo
 
Sectional chart

 
Airport distance calculator
Flying to Smokey's Heliport? Find the distance to fly.

From to FL44

Sunrise and sunset
Times for 16-Feb-2020
 Local
(UTC-5)
 Zulu
(UTC)
Morning civil twilight06:3911:39
Sunrise07:0312:03
Sunset18:1323:13
Evening civil twilight18:3723:37

Current date and time
Zulu (UTC)  17-Feb-2020 01:50:54
Local (UTC-5)  16-Feb-2020 20:50:54
 
METAR
KDAB 
3nm SW 
170135Z 34003KT 9SM SCT036 OVC055 19/19 A3010 RMK AO2 RAB00E03 P0001 T01940189 $
KOMN 
6nm NW 
162350Z 14005KT 5SM RABR SCT027 BKN055 21/19 A3006 RMK LAST
KEVB 
11nm S 
170047Z 20005KT 2SM -RA BKN003 BKN020 20/19 A3009
KDED 
17nm SW 
170135Z AUTO 33005KT 10SM SCT048 19/ A3010 RMK AO2
KFIN 
17nm NW 
170135Z AUTO 01009G15KT 10SM BKN008 OVC060 17/15 A3011 RMK AO2 T01650153
TAF
KDAB 
3nm SW 
162252Z 1623/1718 VRB05KT P6SM VCSH SCT035 BKN050 BKN090 TEMPO 1623/1701 3SM SHRA SCT015 BKN030 FM170600 VRB03KT 6SM BR SCT008 SCT100 BKN200 TEMPO 1709/1713 4SM BR FEW004 BKN008 FM171500 VRB04KT P6SM SCT008 BKN015 BKN040
NOTAMs
Click for the latest NOTAMs
NOTAMs are issued by the DoD/FAA and will open in a separate window not controlled by AirNav.

 

 
 

Would you like to see your business listed on this page?

 If your business provides an interesting product or service to pilots, flight crews, aircraft, or users of the Smokey's Heliport, you should consider listing it here.  To start the listing process, click on the button below
 
Add a business
 

Other Pages about Smokey's Heliport

Update a link
 
Copyright © AirNav, LLC. All rights reserved. Privacy Policy  Contact